Time;durP1;ratioP1;P1;durP2;ratioP2;P2;SDS_P1;SDS_P2;PMS_P1;PMS_P2;Temp;Humidity;BMP_temperature;BMP_pressure;BME280_temperature;BME280_humidity;BME280_pressure;Samples;Min_cycle;Max_cycle;Signal;HPM_P1;HPM_P2
2022/01/25 00:27:38;;;;;;;18.50;8.05;;;;;;;3.29;93.83;102866.19;6074900;28;20041;-72
2022/01/25 00:30:44;;;;;;;15.93;7.35;;;;;;;3.33;94.06;102862.59;6084675;28;20102;-71
2022/01/25 00:33:41;;;;;;;17.30;7.90;;;;;;;3.29;94.08;102866.19;6075056;28;20038;-71
2022/01/25 00:36:37;;;;;;;19.10;8.50;;;;;;;3.25;94.06;102867.19;6074414;28;20044;-71
2022/01/25 00:39:32;;;;;;;19.67;8.37;;;;;;;3.40;93.63;102863.25;6063656;28;20041;-72
2022/01/25 00:42:27;;;;;;;17.08;7.40;;;;;;;3.42;93.54;102864.94;6072771;28;20508;-72
2022/01/25 00:45:27;;;;;;;20.07;7.90;;;;;;;3.38;93.81;102865.91;6066083;28;20040;-72
2022/01/25 00:54:31;;;;;;;19.08;8.73;;;;;;;3.30;93.40;102862.69;6074397;28;20044;-72
2022/01/25 00:57:26;;;;;;;21.52;8.40;;;;;;;3.38;93.30;102855.44;6075153;28;20036;-71
2022/01/25 01:00:23;;;;;;;21.23;8.40;;;;;;;3.37;93.08;102852.88;6074066;28;20042;-71
2022/01/25 01:03:18;;;;;;;20.58;8.32;;;;;;;3.33;93.15;102856.47;6075001;28;20404;-71
2022/01/25 01:06:15;;;;;;;22.40;9.17;;;;;;;3.34;92.31;102851.16;6059970;28;20042;-72
2022/01/25 01:09:11;;;;;;;22.30;8.80;;;;;;;3.24;91.85;102852.38;6071138;28;20033;-71
2022/01/25 01:12:36;;;;;;;23.88;9.00;;;;;;;3.25;92.40;102843.59;6074497;28;20112;-71
2022/01/25 01:15:39;;;;;;;22.13;8.10;;;;;;;3.26;92.38;102839.22;6074534;28;20065;-72
2022/01/25 01:31:56;;;;;;;26.88;9.55;;;;;;;3.29;90.51;102829.47;6093428;28;20179;-72
2022/01/25 01:41:12;;;;;;;25.95;9.25;;;;;;;3.27;91.15;102828.69;6074687;28;20033;-72
2022/01/25 01:44:10;;;;;;;28.73;9.70;;;;;;;3.21;90.72;102826.25;6074082;28;20088;-72
2022/01/25 01:47:20;;;;;;;22.75;9.20;;;;;;;3.22;90.39;102827.09;6073549;28;20480;-72
2022/01/25 01:50:27;;;;;;;28.50;8.98;;;;;;;3.24;90.91;102823.53;6073689;28;20048;-73
2022/01/25 01:53:22;;;;;;;26.23;9.93;;;;;;;3.19;90.71;102820.19;6073606;28;20080;-72
2022/01/25 01:56:18;;;;;;;22.50;8.73;;;;;;;3.23;91.47;102813.97;6074325;28;20034;-72
2022/01/25 01:59:16;;;;;;;25.58;9.10;;;;;;;3.21;90.88;102810.50;6073900;28;20032;-72
2022/01/25 02:02:11;;;;;;;24.02;8.55;;;;;;;3.20;90.71;102808.81;6074036;28;20068;-72
2022/01/25 02:05:06;;;;;;;24.87;9.63;;;;;;;3.17;90.65;102806.28;6080244;28;20034;-72
2022/01/25 02:08:02;;;;;;;30.15;9.68;;;;;;;3.26;90.11;102807.78;6069666;28;20295;-72
2022/01/25 02:10:58;;;;;;;27.52;9.70;;;;;;;3.29;90.56;102808.50;6064110;28;20026;-72
2022/01/25 02:13:53;;;;;;;29.27;10.60;;;;;;;3.22;90.52;102807.00;6074065;28;20026;-72
2022/01/25 02:22:59;;;;;;;25.23;9.82;;;;;;;3.25;90.27;102806.03;6067694;28;20456;-72
2022/01/25 02:25:57;;;;;;;27.75;9.40;;;;;;;3.22;90.07;102800.91;6069527;28;20037;-72
2022/01/25 02:28:53;;;;;;;25.10;9.70;;;;;;;3.20;90.08;102803.56;6073985;28;20461;-72
2022/01/25 02:31:48;;;;;;;29.23;10.57;;;;;;;3.25;89.47;102806.91;6064393;28;20044;-72
2022/01/25 02:34:43;;;;;;;24.23;8.97;;;;;;;3.20;90.41;102811.44;6072700;28;20025;-72
2022/01/25 02:37:39;;;;;;;25.97;9.40;;;;;;;3.16;89.80;102801.06;6073051;28;20025;-71
2022/01/25 02:40:35;;;;;;;23.10;8.90;;;;;;;3.15;90.65;102808.09;6060108;28;20037;-72
2022/01/25 02:43:31;;;;;;;24.00;9.23;;;;;;;3.14;90.95;102805.53;6073360;28;20273;-72
2022/01/25 02:49:28;;;;;;;23.73;8.63;;;;;;;3.17;91.01;102785.31;6061426;28;20037;-72
2022/01/25 02:52:25;;;;;;;25.00;8.82;;;;;;;3.17;91.28;102797.56;6072698;28;20033;-72
2022/01/25 02:55:20;;;;;;;30.30;9.65;;;;;;;3.13;91.16;102791.56;6072631;28;20110;-72
2022/01/25 02:58:15;;;;;;;24.77;9.17;;;;;;;3.12;91.59;102800.34;6071279;28;20435;-72
2022/01/25 03:01:11;;;;;;;22.77;8.13;;;;;;;3.13;92.20;102796.78;6072819;28;20032;-72
2022/01/25 03:04:07;;;;;;;25.77;9.38;;;;;;;3.13;92.13;102786.31;6064591;28;20100;-72
2022/01/25 03:07:03;;;;;;;24.33;9.15;;;;;;;3.09;91.67;102789.09;6072200;28;20037;-72
2022/01/25 03:09:59;;;;;;;24.85;9.13;;;;;;;3.13;92.28;102785.44;6073124;28;20029;-72
2022/01/25 03:12:56;;;;;;;24.70;8.68;;;;;;;3.10;92.38;102789.00;6071666;28;20072;-73
2022/01/25 03:18:48;;;;;;;22.20;8.47;;;;;;;3.17;92.11;102787.94;6068200;28;20044;-72
2022/01/25 03:21:44;;;;;;;26.60;8.93;;;;;;;3.14;92.14;102787.16;6074675;28;20477;-72
2022/01/25 03:24:39;;;;;;;25.48;9.02;;;;;;;3.19;91.82;102780.88;6077416;28;20086;-72
2022/01/25 03:27:34;;;;;;;25.30;8.90;;;;;;;3.12;91.70;102779.38;6078203;28;20480;-72
2022/01/25 03:30:30;;;;;;;26.50;9.07;;;;;;;3.13;92.10;102788.94;6073945;28;20048;-72
2022/01/25 03:33:25;;;;;;;21.57;9.17;;;;;;;3.09;91.72;102789.94;6067679;28;20065;-72
2022/01/25 03:36:21;;;;;;;24.58;8.90;;;;;;;3.11;91.93;102787.25;6077120;28;20024;-72
2022/01/25 03:39:16;;;;;;;25.88;9.32;;;;;;;3.05;91.63;102788.31;6068632;28;20053;-71
2022/01/25 03:42:14;;;;;;;25.80;9.30;;;;;;;3.03;91.93;102774.41;6070270;28;20034;-72
2022/01/25 03:45:17;;;;;;;23.95;9.50;;;;;;;3.08;91.20;102782.97;6076009;28;20268;-72
2022/01/25 03:51:08;;;;;;;27.30;9.37;;;;;;;3.04;91.42;102770.03;6077039;28;20040;-72
2022/01/25 03:54:03;;;;;;;27.87;9.80;;;;;;;3.02;91.03;102772.66;6075909;28;20535;-72
2022/01/25 03:56:59;;;;;;;29.88;10.25;;;;;;;3.11;91.40;102772.41;6077514;28;20033;-72
2022/01/25 03:59:57;;;;;;;28.67;9.20;;;;;;;3.10;91.32;102770.69;6071856;28;20076;-72
2022/01/25 04:03:02;;;;;;;27.88;9.93;;;;;;;3.06;90.89;102768.22;6061155;28;20030;-72
2022/01/25 04:05:58;;;;;;;25.92;9.02;;;;;;;3.09;90.94;102774.22;6058137;28;20038;-72
2022/01/25 04:08:54;;;;;;;25.17;8.13;;;;;;;3.10;90.45;102770.69;6077290;28;20041;-72
2022/01/25 04:11:49;;;;;;;25.70;9.20;;;;;;;3.04;91.50;102773.50;6073406;28;20037;-72
2022/01/25 04:14:45;;;;;;;29.65;10.23;;;;;;;3.07;91.03;102780.41;6076827;28;20436;-72
2022/01/25 04:17:44;;;;;;;29.25;10.25;;;;;;;3.13;90.00;102773.19;6063276;28;20125;-71
2022/01/25 04:20:41;;;;;;;29.15;10.27;;;;;;;3.05;89.38;102761.25;6068028;28;20550;-72
2022/01/25 04:26:51;;;;;;;28.92;10.23;;;;;;;2.97;89.99;102757.09;6074790;28;20029;-72
2022/01/25 04:29:46;;;;;;;28.05;10.57;;;;;;;3.05;89.38;102756.00;6063858;28;20499;-72
2022/01/25 04:32:46;;;;;;;27.73;9.87;;;;;;;3.09;88.53;102748.00;6075172;28;20037;-72
2022/01/25 04:35:57;;;;;;;30.00;10.20;;;;;;;2.96;88.25;102747.50;6075484;28;20072;-72
2022/01/25 04:52:01;;;;;;;32.70;11.63;;;;;;;2.91;91.46;102754.66;6074747;28;20041;-72
2022/01/25 04:55:08;;;;;;;30.75;9.70;;;;;;;2.95;91.34;102752.81;6075571;28;20052;-72
2022/01/25 04:58:12;;;;;;;30.33;11.25;;;;;;;3.03;90.95;102763.91;6062446;28;20080;-73
2022/01/25 05:01:07;;;;;;;32.35;10.52;;;;;;;2.98;91.56;102760.59;6074936;28;20045;-72
2022/01/25 05:04:07;;;;;;;39.40;12.83;;;;;;;2.95;91.84;102751.06;6076111;28;20022;-72
2022/01/25 05:07:51;;;;;;;30.75;11.27;;;;;;;2.91;92.15;102759.91;6074983;28;20025;-72
2022/01/25 05:10:22;;;;;;;32.85;12.73;;;;;;;2.96;92.35;102758.00;6076264;28;20539;-72
2022/01/25 05:22:30;;;;;;;43.75;13.32;;;;;;;2.87;92.95;102760.91;6074490;28;20041;-71
2022/01/25 05:25:25;;;;;;;40.28;12.38;;;;;;;2.86;92.83;102763.56;6074804;28;20652;-72
2022/01/25 05:28:20;;;;;;;35.83;12.73;;;;;;;2.84;93.31;102763.63;6074870;28;20044;-72
2022/01/25 05:31:16;;;;;;;41.30;13.37;;;;;;;2.84;93.65;102762.75;6074623;28;20025;-72
2022/01/25 05:34:11;;;;;;;35.73;13.07;;;;;;;2.95;93.44;102768.53;6073466;28;20041;-72
2022/01/25 05:37:07;;;;;;;32.97;11.77;;;;;;;2.96;93.36;102765.03;6075004;28;20033;-72
2022/01/25 05:40:07;;;;;;;38.30;11.55;;;;;;;2.81;93.24;102768.97;6069163;28;20686;-72
2022/01/25 05:46:14;;;;;;;46.47;12.90;;;;;;;2.82;93.38;102785.53;6074977;28;20040;-72
2022/01/25 05:49:09;;;;;;;43.78;13.65;;;;;;;2.78;93.39;102781.28;6064958;28;20069;-72
2022/01/25 05:52:06;;;;;;;41.13;12.63;;;;;;;2.83;93.70;102789.84;6068836;28;20037;-72
2022/01/25 05:55:02;;;;;;;44.58;14.30;;;;;;;2.72;93.34;102784.94;6074741;28;20026;-71
2022/01/25 05:57:57;;;;;;;42.25;12.30;;;;;;;2.76;92.88;102775.22;6064989;28;20123;-72
2022/01/25 06:00:52;;;;;;;36.03;12.07;;;;;;;2.74;93.04;102785.78;6073863;28;20045;-72
2022/01/25 06:03:48;;;;;;;43.60;14.02;;;;;;;2.68;92.19;102788.56;6075130;28;20037;-72
2022/01/25 06:06:43;;;;;;;44.63;13.68;;;;;;;2.71;92.52;102792.84;6069205;28;20105;-72
2022/01/25 06:09:40;;;;;;;44.37;15.07;;;;;;;2.69;92.47;102785.03;6068890;28;20399;-72
2022/01/25 06:12:36;;;;;;;36.47;13.10;;;;;;;2.72;91.92;102784.06;6073726;28;20287;-72
2022/01/25 06:15:31;;;;;;;42.25;11.98;;;;;;;2.75;92.41;102783.97;6074137;28;20038;-72
2022/01/25 06:18:26;;;;;;;43.03;14.43;;;;;;;2.74;91.92;102782.28;6074420;28;20499;-72
2022/01/25 06:21:21;;;;;;;42.53;14.57;;;;;;;2.69;91.39;102776.34;6073248;28;20029;-72
2022/01/25 06:24:17;;;;;;;44.80;14.80;;;;;;;2.70;91.53;102786.75;6072560;28;20129;-72
2022/01/25 06:27:12;;;;;;;44.03;13.20;;;;;;;2.74;91.34;102777.06;6073421;28;20033;-72
2022/01/25 06:30:09;;;;;;;44.73;13.40;;;;;;;2.76;91.27;102765.63;6062855;28;20030;-73
2022/01/25 06:33:07;;;;;;;43.25;13.65;;;;;;;2.69;90.16;102784.19;6060507;28;20450;-71
2022/01/25 06:36:02;;;;;;;43.88;15.02;;;;;;;2.65;88.72;102779.94;6061289;28;20037;-72
2022/01/25 06:38:59;;;;;;;41.97;14.82;;;;;;;2.66;88.08;102787.75;6068838;28;20041;-73
2022/01/25 06:41:54;;;;;;;52.85;14.88;;;;;;;2.65;88.36;102793.03;6073188;28;20041;-73
2022/01/25 06:44:54;;;;;;;46.17;14.47;;;;;;;2.68;88.55;102785.94;6073451;28;20036;-72
2022/01/25 06:47:50;;;;;;;50.00;14.95;;;;;;;2.69;87.31;102781.56;6078483;28;20033;-72
2022/01/25 06:50:45;;;;;;;47.47;15.20;;;;;;;2.75;87.19;102789.22;6072929;28;20243;-72
2022/01/25 06:53:41;;;;;;;56.90;15.87;;;;;;;2.73;87.26;102798.91;6073641;28;20029;-72
2022/01/25 06:56:36;;;;;;;42.00;13.63;;;;;;;2.76;87.27;102798.81;6071728;28;20025;-72
2022/01/25 06:59:31;;;;;;;36.13;13.57;;;;;;;2.69;86.12;102808.59;6073303;28;20520;-72
2022/01/25 07:02:27;;;;;;;51.80;16.07;;;;;;;2.67;87.50;102801.69;6072481;28;20108;-72
2022/01/25 07:05:22;;;;;;;45.05;14.85;;;;;;;2.61;87.63;102807.13;6073223;28;20040;-72
2022/01/25 07:08:18;;;;;;;47.43;16.20;;;;;;;2.62;87.38;102809.69;6073361;28;20030;-72
2022/01/25 07:11:14;;;;;;;44.67;14.93;;;;;;;2.62;88.05;102808.81;6071947;28;20384;-72
2022/01/25 07:14:09;;;;;;;52.90;17.02;;;;;;;2.58;87.93;102809.81;6073178;28;20044;-72
2022/01/25 07:17:04;;;;;;;44.60;14.70;;;;;;;2.56;87.84;102808.97;6073552;28;20047;-72
2022/01/25 07:20:00;;;;;;;46.00;14.10;;;;;;;2.56;88.11;102808.97;6072855;28;20038;-73
2022/01/25 07:22:55;;;;;;;46.83;14.40;;;;;;;2.57;88.41;102810.72;6073292;28;20299;-72
2022/01/25 07:25:50;;;;;;;43.23;14.13;;;;;;;2.59;89.17;102808.91;6067356;28;20060;-72
2022/01/25 07:28:46;;;;;;;45.47;14.70;;;;;;;2.60;89.01;102806.25;6069329;28;20276;-72
2022/01/25 07:31:42;;;;;;;42.80;13.65;;;;;;;2.69;88.82;102805.13;6072730;28;20033;-72
2022/01/25 07:34:37;;;;;;;44.20;13.73;;;;;;;2.64;88.97;102802.63;6073037;28;20603;-72
2022/01/25 07:37:32;;;;;;;40.27;13.23;;;;;;;2.72;88.47;102805.03;6072390;28;20038;-72
2022/01/25 07:40:28;;;;;;;37.33;12.63;;;;;;;2.85;88.85;102801.16;6069617;28;20373;-71
2022/01/25 07:43:24;;;;;;;40.30;14.10;;;;;;;2.83;88.06;102810.81;6070402;28;20034;-72
2022/01/25 07:46:19;;;;;;;39.72;13.10;;;;;;;2.90;88.08;102804.50;6059691;28;20079;-72
2022/01/25 07:49:14;;;;;;;39.83;11.97;;;;;;;2.85;86.93;102809.03;6072506;28;20037;-71
2022/01/25 07:52:09;;;;;;;47.00;14.03;;;;;;;2.96;87.57;102820.06;6071953;28;20037;-72
2022/01/25 07:55:05;;;;;;;38.00;13.13;;;;;;;2.84;86.27;102804.69;6072759;28;20053;-72
2022/01/25 07:58:01;;;;;;;39.50;12.35;;;;;;;2.76;85.88;102807.53;6072966;28;20292;-72
2022/01/25 08:00:57;;;;;;;39.13;13.15;;;;;;;2.89;86.22;102802.78;6072342;28;20484;-72
2022/01/25 08:03:52;;;;;;;40.17;12.77;;;;;;;2.82;85.50;102799.50;6067587;28;20041;-72
2022/01/25 08:06:48;;;;;;;36.40;12.05;;;;;;;2.85;85.43;102811.66;6062771;28;20059;-73
2022/01/25 08:09:43;;;;;;;40.85;14.10;;;;;;;2.99;86.15;102812.06;6072724;28;20036;-72
2022/01/25 08:12:39;;;;;;;40.15;12.75;;;;;;;2.95;85.42;102813.94;6081218;28;20034;-72
2022/01/25 08:15:34;;;;;;;36.22;12.05;;;;;;;3.02;86.88;102803.28;6077041;28;20044;-73
2022/01/25 08:18:30;;;;;;;36.67;13.05;;;;;;;2.92;85.87;102806.19;6076525;28;20025;-72
2022/01/25 08:21:26;;;;;;;40.10;13.30;;;;;;;2.95;85.74;102807.84;6073821;28;20091;-72
2022/01/25 08:24:21;;;;;;;37.10;11.70;;;;;;;2.87;85.47;102815.94;6076374;28;20280;-72
2022/01/25 08:27:22;;;;;;;41.20;13.50;;;;;;;2.96;86.13;102812.19;6060784;28;20064;-72
2022/01/25 08:30:19;;;;;;;38.35;11.90;;;;;;;2.91;86.13;102819.31;6064061;28;20331;-72
2022/01/25 08:33:14;;;;;;;38.25;13.57;;;;;;;2.96;85.55;102813.03;6076377;28;20034;-72
2022/01/25 08:36:09;;;;;;;40.70;12.57;;;;;;;2.93;86.12;102804.41;6076924;28;20545;-72
2022/01/25 08:39:06;;;;;;;40.90;12.90;;;;;;;2.89;86.14;102815.88;6068569;28;20503;-72
2022/01/25 08:42:03;;;;;;;41.72;11.77;;;;;;;2.97;85.82;102820.00;6052082;28;20539;-72
2022/01/25 08:44:59;;;;;;;39.60;12.75;;;;;;;3.10;87.01;102817.00;6068481;28;20116;-72
2022/01/25 08:47:54;;;;;;;44.97;13.00;;;;;;;3.09;86.95;102815.28;6068889;28;20042;-72
2022/01/25 08:50:49;;;;;;;48.23;13.73;;;;;;;3.05;86.87;102817.13;6063770;28;20026;-71
2022/01/25 08:53:45;;;;;;;43.17;13.40;;;;;;;2.93;86.85;102820.13;6075150;28;20029;-72
2022/01/25 08:56:43;;;;;;;33.30;11.50;;;;;;;2.96;86.07;102822.66;6070566;28;20056;-72
2022/01/25 08:59:38;;;;;;;44.33;12.82;;;;;;;3.02;86.46;102830.31;6068519;28;20047;-72
2022/01/25 09:02:33;;;;;;;43.50;13.02;;;;;;;3.08;87.23;102819.66;6070707;28;20414;-72
2022/01/25 09:05:29;;;;;;;37.03;13.33;;;;;;;3.00;86.75;102824.28;6067404;28;20400;-72
2022/01/25 09:08:27;;;;;;;42.58;12.77;;;;;;;2.93;86.45;102835.84;6074722;28;20283;-73
2022/01/25 09:11:23;;;;;;;38.60;13.50;;;;;;;2.91;87.47;102832.41;6067939;28;20034;-73
2022/01/25 09:14:18;;;;;;;41.30;11.33;;;;;;;2.95;86.82;102831.44;6067501;28;20026;-73
2022/01/25 09:17:14;;;;;;;42.97;12.97;;;;;;;2.97;86.27;102838.34;6073523;28;20033;-72
2022/01/25 09:20:09;;;;;;;46.63;13.00;;;;;;;2.89;86.67;102840.31;6065380;28;20111;-73
2022/01/25 09:23:05;;;;;;;43.75;12.07;;;;;;;2.94;87.20;102832.31;6073193;28;20041;-72
2022/01/25 09:26:02;;;;;;;46.42;14.25;;;;;;;2.85;87.16;102827.38;6067557;28;20535;-72
2022/01/25 09:28:58;;;;;;;43.78;12.95;;;;;;;2.91;88.05;102827.16;6059858;28;20042;-73
2022/01/25 09:31:53;;;;;;;45.22;14.93;;;;;;;2.92;88.01;102829.75;6073835;28;20083;-73
2022/01/25 09:34:49;;;;;;;44.87;13.00;;;;;;;2.90;88.30;102830.72;6063398;28;20132;-73
2022/01/25 09:37:46;;;;;;;44.95;13.80;;;;;;;2.82;88.14;102843.16;6070875;28;20044;-73
2022/01/25 09:40:42;;;;;;;47.90;13.50;;;;;;;2.88;88.23;102837.75;6071348;28;20033;-72
2022/01/25 09:43:37;;;;;;;39.95;13.13;;;;;;;2.81;88.33;102842.31;6074421;28;20539;-73
2022/01/25 09:46:33;;;;;;;45.63;12.40;;;;;;;2.81;88.59;102839.69;6072365;28;20033;-72
2022/01/25 09:49:28;;;;;;;45.10;14.65;;;;;;;2.85;88.80;102837.84;6073438;28;20702;-73
2022/01/25 09:52:23;;;;;;;44.77;14.30;;;;;;;2.76;88.66;102838.09;6073071;28;20061;-72
2022/01/25 09:55:26;;;;;;;43.38;13.65;;;;;;;2.74;88.99;102839.91;6071587;28;20337;-72
2022/01/25 09:58:21;;;;;;;43.42;13.63;;;;;;;2.74;89.04;102839.91;6068435;28;20030;-72
2022/01/25 10:01:25;;;;;;;46.10;14.13;;;;;;;2.83;89.51;102847.47;6071060;28;20037;-72
2022/01/25 10:04:31;;;;;;;44.38;12.30;;;;;;;2.76;89.71;102838.09;6071982;28;20410;-73
2022/01/25 10:07:29;;;;;;;43.33;12.25;;;;;;;2.79;89.47;102841.50;6072837;28;20029;-73
2022/01/25 10:10:26;;;;;;;42.83;15.30;;;;;;;2.75;89.34;102842.47;6072807;28;20401;-73
2022/01/25 10:13:36;;;;;;;45.25;14.05;;;;;;;2.76;90.63;102838.09;6070386;28;20029;-73
2022/01/25 10:16:36;;;;;;;52.13;13.82;;;;;;;2.86;90.04;102839.53;6068920;28;20041;-73
2022/01/25 10:19:41;;;;;;;50.08;14.60;;;;;;;2.84;90.29;102846.59;6073058;28;20116;-72
2022/01/25 10:22:43;;;;;;;51.03;16.55;;;;;;;2.83;90.16;102850.97;6068519;28;20042;-73
2022/01/25 10:25:41;;;;;;;40.22;12.00;;;;;;;2.95;89.55;102844.53;6065998;28;20033;-72
2022/01/25 10:28:37;;;;;;;43.25;13.27;;;;;;;2.90;90.42;102838.56;6072820;28;20040;-73
2022/01/25 10:31:38;;;;;;;47.17;14.40;;;;;;;2.77;90.23;102839.81;6071345;28;20152;-72
2022/01/25 10:34:44;;;;;;;49.13;15.57;;;;;;;2.80;90.66;102834.50;6071086;28;20457;-73
2022/01/25 10:37:41;;;;;;;43.80;15.00;;;;;;;2.78;90.62;102833.66;6070862;28;20521;-73
2022/01/25 10:40:37;;;;;;;46.80;13.98;;;;;;;2.76;90.54;102827.63;6070533;28;20041;-71
2022/01/25 10:43:34;;;;;;;42.80;14.20;;;;;;;2.78;91.01;102831.03;6072923;28;20033;-73
2022/01/25 10:46:31;;;;;;;47.55;14.25;;;;;;;2.80;90.66;102835.34;6072789;28;20026;-73
2022/01/25 10:49:26;;;;;;;45.42;14.32;;;;;;;2.83;90.45;102832.63;6071747;28;20551;-73
2022/01/25 10:52:26;;;;;;;44.45;13.40;;;;;;;2.96;91.10;102841.00;6062162;28;20033;-73
2022/01/25 10:55:21;;;;;;;42.25;13.60;;;;;;;2.95;91.07;102831.44;6071308;28;20033;-73
2022/01/25 10:58:16;;;;;;;46.80;15.57;;;;;;;2.89;90.69;102842.06;6070781;28;20723;-73
2022/01/25 11:01:12;;;;;;;46.78;14.45;;;;;;;2.89;90.72;102836.84;6071856;28;20029;-72
2022/01/25 11:04:14;;;;;;;48.47;14.20;;;;;;;2.92;90.46;102836.75;6067000;28;20049;-72
2022/01/25 11:07:11;;;;;;;46.83;12.90;;;;;;;2.93;91.33;102833.25;6070126;28;20272;-72
2022/01/25 11:10:09;;;;;;;50.50;15.75;;;;;;;2.86;90.72;102826.44;6072094;28;20515;-72
2022/01/25 11:13:20;;;;;;;47.10;13.93;;;;;;;2.89;90.94;102818.50;6070181;28;20034;-72
2022/01/25 11:16:16;;;;;;;52.05;14.85;;;;;;;2.92;90.87;102818.41;6070490;28;20462;-73
2022/01/25 11:19:11;;;;;;;54.67;16.17;;;;;;;2.97;90.40;102809.50;6071975;28;20040;-72
2022/01/25 11:22:09;;;;;;;50.00;15.03;;;;;;;3.08;90.96;102805.69;6071773;28;20073;-73
2022/01/25 11:25:06;;;;;;;50.35;15.25;;;;;;;3.09;90.47;102802.19;6065701;28;20548;-73
2022/01/25 11:28:01;;;;;;;50.25;14.95;;;;;;;3.18;90.28;102792.25;6059368;28;20516;-72
2022/01/25 11:30:59;;;;;;;48.87;14.80;;;;;;;3.34;89.71;102798.72;6066382;28;20037;-73
2022/01/25 11:33:55;;;;;;;45.10;14.07;;;;;;;3.56;88.80;102791.91;6071215;28;20049;-72
2022/01/25 11:37:01;;;;;;;42.28;12.75;;;;;;;3.81;89.34;102791.09;6069556;28;20045;-73
2022/01/25 11:39:56;;;;;;;45.95;14.57;;;;;;;3.93;87.46;102794.16;6068452;28;20493;-73
2022/01/25 11:42:55;;;;;;;48.20;15.07;;;;;;;3.88;87.27;102792.59;6075012;28;20033;-72
2022/01/25 11:46:02;;;;;;;46.67;14.68;;;;;;;4.04;86.94;102783.28;6068376;28;20122;-72
2022/01/25 11:49:03;;;;;;;42.03;14.45;;;;;;;4.11;85.22;102774.28;6064461;28;20057;-72
2022/01/25 11:52:12;;;;;;;48.92;13.73;;;;;;;4.30;86.34;102777.09;6076013;28;20106;-73
2022/01/25 11:55:20;;;;;;;41.13;13.57;;;;;;;4.26;84.54;102781.63;6066576;28;20168;-73
2022/01/25 11:58:26;;;;;;;47.10;14.20;;;;;;;4.24;84.69;102775.56;6070504;28;20369;-74
2022/01/25 12:01:24;;;;;;;44.65;13.02;;;;;;;4.40;85.26;102776.75;6069729;28;20060;-73
2022/01/25 12:04:19;;;;;;;45.25;14.57;;;;;;;4.33;84.63;102772.59;6069771;28;20041;-72
2022/01/25 12:07:24;;;;;;;47.33;14.27;;;;;;;4.31;84.70;102776.22;6067566;28;20037;-73
2022/01/25 12:10:54;;;;;;;43.53;14.30;;;;;;;4.14;85.29;102766.31;6060606;28;20521;-72
2022/01/25 12:14:14;;;;;;;41.40;14.20;;;;;;;4.05;85.91;102754.34;6060608;28;20564;-73
2022/01/25 12:17:11;;;;;;;40.03;12.35;;;;;;;3.97;86.81;102755.53;6060779;28;20036;-73
2022/01/25 12:20:21;;;;;;;44.60;14.93;;;;;;;3.77;86.30;102755.38;6068216;28;20474;-72
2022/01/25 12:23:20;;;;;;;49.95;14.73;;;;;;;3.62;86.41;102748.88;6076203;28;20049;-72
2022/01/25 12:27:02;;;;;;;46.63;13.80;;;;;;;3.63;86.92;102745.34;6072466;28;20052;-72
2022/01/25 12:29:59;;;;;;;42.85;12.70;;;;;;;3.77;87.96;102742.25;6073615;28;20615;-72
2022/01/25 12:33:02;;;;;;;35.80;12.40;;;;;;;3.84;86.29;102733.25;6069413;28;20084;-73
2022/01/25 12:36:00;;;;;;;36.97;12.88;;;;;;;3.96;86.32;102727.59;6067812;28;20037;-72
2022/01/25 12:38:55;;;;;;;43.35;12.75;;;;;;;3.94;86.18;102718.91;6070799;28;20065;-72
2022/01/25 12:41:51;;;;;;;33.13;11.47;;;;;;;3.88;85.89;102708.63;6067832;28;20060;-72
2022/01/25 12:44:53;;;;;;;43.63;14.00;;;;;;;3.98;86.82;102710.88;6075199;28;20500;-73
2022/01/25 12:47:53;;;;;;;38.15;12.32;;;;;;;3.97;87.35;102713.53;6072378;28;20029;-73
2022/01/25 12:50:51;;;;;;;43.70;12.27;;;;;;;3.95;87.00;102705.72;6073892;28;20400;-72
2022/01/25 12:53:50;;;;;;;43.33;13.23;;;;;;;3.82;85.81;102706.22;6073295;28;20029;-73
2022/01/25 12:56:48;;;;;;;42.95;13.88;;;;;;;3.79;86.98;102699.31;6072869;28;20472;-73
2022/01/25 12:59:48;;;;;;;38.30;12.23;;;;;;;3.94;86.99;102697.94;6075280;28;20385;-72
2022/01/25 13:02:44;;;;;;;41.05;11.90;;;;;;;3.95;86.16;102691.75;6061782;28;20036;-73
2022/01/25 13:05:52;;;;;;;39.35;12.02;;;;;;;3.97;86.62;102692.53;6072823;28;20416;-73
2022/01/25 13:08:57;;;;;;;39.55;12.35;;;;;;;3.90;86.60;102686.69;6075019;28;20112;-73
2022/01/25 13:14:51;;;;;;;44.60;13.68;;;;;;;4.06;86.84;102681.72;6068978;28;20033;-73
2022/01/25 13:17:46;;;;;;;36.03;11.20;;;;;;;4.35;86.87;102685.91;6070247;28;20140;-72
2022/01/25 13:20:44;;;;;;;41.67;11.47;;;;;;;4.45;85.59;102680.25;6059526;28;20034;-72
2022/01/25 13:23:52;;;;;;;34.75;11.10;;;;;;;4.42;84.37;102671.63;6062015;28;20113;-72
2022/01/25 13:26:54;;;;;;;;;;;;;;;4.43;84.87;102676.81;6071225;28;20507;-72
2022/01/25 13:33:07;;;;;;;34.60;12.30;;;;;;;4.40;83.37;102671.69;6074474;28;20108;-71
2022/01/25 13:36:04;;;;;;;39.60;12.70;;;;;;;4.42;83.85;102675.09;6066754;28;20046;-72
2022/01/25 13:38:59;;;;;;;36.42;11.02;;;;;;;4.36;85.13;102674.47;6072675;28;20029;-72
2022/01/25 13:42:08;;;;;;;33.47;11.40;;;;;;;4.48;84.76;102669.63;6065242;28;20044;-72
2022/01/25 13:48:27;;;;;;;36.35;11.38;;;;;;;4.33;84.69;102677.22;6061279;28;20030;-74
2022/01/25 13:51:24;;;;;;;30.80;9.98;;;;;;;4.34;85.46;102676.31;6073262;28;20033;-72
2022/01/25 13:54:24;;;;;;;41.17;11.82;;;;;;;4.32;85.00;102671.09;6063201;28;20034;-72
2022/01/25 13:57:19;;;;;;;33.92;10.48;;;;;;;4.33;84.24;102675.44;6068300;28;20041;-74
2022/01/25 14:00:15;;;;;;;34.77;10.90;;;;;;;4.39;85.77;102675.22;6072300;28;20040;-72
2022/01/25 14:03:10;;;;;;;33.65;11.90;;;;;;;4.30;85.45;102674.69;6068804;28;20468;-72
2022/01/25 14:06:24;;;;;;;31.50;10.85;;;;;;;4.37;85.56;102674.44;6069915;28;20520;-71
2022/01/25 14:09:27;;;;;;;36.88;11.38;;;;;;;4.35;84.19;102670.97;6067578;28;20052;-72
2022/01/25 14:22:10;;;;;;;35.03;10.85;;;;;;;4.23;86.17;102676.72;6054435;28;20041;-72
2022/01/25 14:25:05;;;;;;;40.10;12.10;;;;;;;4.23;86.60;102674.09;6072946;28;20037;-72
2022/01/25 14:28:05;;;;;;;37.80;11.82;;;;;;;4.04;86.51;102668.66;6072036;28;20037;-73
2022/01/25 14:31:01;;;;;;;35.88;11.23;;;;;;;4.19;87.29;102672.47;6071116;28;20117;-73
2022/01/25 14:33:57;;;;;;;41.47;11.05;;;;;;;4.31;86.69;102676.41;6072120;28;20396;-72
2022/01/25 14:36:53;;;;;;;32.40;10.18;;;;;;;4.19;86.19;102667.22;6072064;28;20037;-71
2022/01/25 14:39:48;;;;;;;40.60;13.07;;;;;;;4.14;86.54;102664.78;6071679;28;20539;-72
2022/01/25 14:42:45;;;;;;;37.47;11.67;;;;;;;4.14;86.53;102666.53;6066994;28;20033;-71
2022/01/25 14:45:41;;;;;;;32.83;11.55;;;;;;;4.12;87.48;102671.00;6068641;28;20049;-72
2022/01/25 14:48:38;;;;;;;36.83;12.13;;;;;;;4.01;86.78;102663.53;6066147;28;20476;-72
2022/01/25 14:51:40;;;;;;;38.13;11.50;;;;;;;3.96;87.58;102672.47;6069052;28;20114;-72
2022/01/25 14:54:38;;;;;;;35.03;11.98;;;;;;;3.99;87.16;102680.25;6057827;28;20036;-72
2022/01/25 14:57:50;;;;;;;43.55;13.98;;;;;;;3.98;87.81;102678.53;6072902;28;20393;-73
2022/01/25 15:00:52;;;;;;;49.70;15.48;;;;;;;3.95;87.20;102681.25;6070824;28;20702;-73
2022/01/25 15:03:49;;;;;;;35.65;12.27;;;;;;;3.89;87.71;102678.84;6055318;28;20386;-72
2022/01/25 15:06:45;;;;;;;37.45;11.93;;;;;;;3.88;87.67;102683.25;6060889;28;20033;-72
2022/01/25 15:09:52;;;;;;;34.42;13.20;;;;;;;3.97;88.19;102692.53;6072773;28;20044;-72
2022/01/25 15:12:49;;;;;;;40.83;11.30;;;;;;;3.95;87.43;102695.22;6068158;28;20124;-73
2022/01/25 15:15:56;;;;;;;37.33;11.85;;;;;;;3.85;87.64;102688.63;6071828;28;20511;-73
2022/01/25 15:18:52;;;;;;;43.20;12.65;;;;;;;3.85;88.64;102685.13;6070583;28;20072;-73
2022/01/25 15:21:50;;;;;;;35.50;10.80;;;;;;;3.82;88.67;102683.47;6065210;28;20098;-73
2022/01/25 15:24:48;;;;;;;43.03;12.90;;;;;;;3.79;88.37;102690.59;6069337;28;20087;-73
2022/01/25 15:27:43;;;;;;;37.50;12.55;;;;;;;3.66;88.91;102684.91;6075649;28;20103;-72
2022/01/25 15:30:39;;;;;;;34.90;11.10;;;;;;;3.69;88.82;102686.56;6057260;28;20034;-73
2022/01/25 15:33:34;;;;;;;33.43;9.97;;;;;;;3.66;88.36;102684.06;6068392;28;20155;-73
2022/01/25 15:36:31;;;;;;;33.47;9.40;;;;;;;3.65;88.22;102682.34;6076291;28;20057;-72